sensor_id;sensor_type;location;lat;lon;timestamp;P1;durP1;ratioP1;P2;durP2;ratioP2
78324;SDS011;67584;51.400;6.692;2023-04-12T00:01:05;4.70;;;1.58;;
78324;SDS011;67584;51.400;6.692;2023-04-12T00:03:31;5.80;;;1.88;;
78324;SDS011;67584;51.400;6.692;2023-04-12T00:05:58;5.03;;;1.50;;
78324;SDS011;67584;51.400;6.692;2023-04-12T00:08:27;4.20;;;1.60;;
78324;SDS011;67584;51.400;6.692;2023-04-12T00:11:00;4.63;;;2.22;;
78324;SDS011;67584;51.400;6.692;2023-04-12T00:13:28;4.07;;;2.15;;
78324;SDS011;67584;51.400;6.692;2023-04-12T00:15:54;5.63;;;1.83;;
78324;SDS011;67584;51.400;6.692;2023-04-12T00:18:20;5.80;;;3.33;;
78324;SDS011;67584;51.400;6.692;2023-04-12T00:20:52;6.30;;;2.47;;
78324;SDS011;67584;51.400;6.692;2023-04-12T00:23:19;9.90;;;2.40;;
78324;SDS011;67584;51.400;6.692;2023-04-12T00:25:45;4.95;;;2.40;;
78324;SDS011;67584;51.400;6.692;2023-04-12T00:28:11;3.05;;;1.65;;
78324;SDS011;67584;51.400;6.692;2023-04-12T00:30:36;5.78;;;2.75;;
78324;SDS011;67584;51.400;6.692;2023-04-12T00:33:02;6.97;;;2.78;;
78324;SDS011;67584;51.400;6.692;2023-04-12T00:35:28;4.05;;;2.95;;
78324;SDS011;67584;51.400;6.692;2023-04-12T00:37:54;6.63;;;2.30;;
78324;SDS011;67584;51.400;6.692;2023-04-12T00:40:20;9.05;;;2.67;;
78324;SDS011;67584;51.400;6.692;2023-04-12T00:42:46;8.75;;;2.58;;
78324;SDS011;67584;51.400;6.692;2023-04-12T00:45:13;6.15;;;2.60;;
78324;SDS011;67584;51.400;6.692;2023-04-12T00:47:39;7.07;;;3.22;;
78324;SDS011;67584;51.400;6.692;2023-04-12T00:50:07;8.45;;;3.20;;
78324;SDS011;67584;51.400;6.692;2023-04-12T00:52:34;5.03;;;2.35;;
78324;SDS011;67584;51.400;6.692;2023-04-12T00:55:05;6.30;;;2.78;;
78324;SDS011;67584;51.400;6.692;2023-04-12T00:57:33;6.78;;;2.60;;
78324;SDS011;67584;51.400;6.692;2023-04-12T01:00:01;6.20;;;2.53;;
78324;SDS011;67584;51.400;6.692;2023-04-12T01:04:55;6.40;;;2.53;;
78324;SDS011;67584;51.400;6.692;2023-04-12T01:07:24;6.30;;;2.28;;
78324;SDS011;67584;51.400;6.692;2023-04-12T01:10:01;5.50;;;2.65;;
78324;SDS011;67584;51.400;6.692;2023-04-12T01:15:12;7.22;;;2.33;;
78324;SDS011;67584;51.400;6.692;2023-04-12T01:20:34;3.85;;;1.95;;
78324;SDS011;67584;51.400;6.692;2023-04-12T01:23:13;5.82;;;1.60;;
78324;SDS011;67584;51.400;6.692;2023-04-12T01:28:37;6.65;;;1.70;;
78324;SDS011;67584;51.400;6.692;2023-04-12T01:31:06;4.22;;;1.70;;
78324;SDS011;67584;51.400;6.692;2023-04-12T01:33:35;5.90;;;2.28;;
78324;SDS011;67584;51.400;6.692;2023-04-12T01:36:09;4.22;;;1.98;;
78324;SDS011;67584;51.400;6.692;2023-04-12T01:38:38;6.70;;;1.92;;
78324;SDS011;67584;51.400;6.692;2023-04-12T01:41:06;4.57;;;2.70;;
78324;SDS011;67584;51.400;6.692;2023-04-12T01:43:32;3.35;;;1.80;;
78324;SDS011;67584;51.400;6.692;2023-04-12T01:46:04;5.35;;;2.03;;
78324;SDS011;67584;51.400;6.692;2023-04-12T01:48:30;8.00;;;2.58;;
78324;SDS011;67584;51.400;6.692;2023-04-12T01:55:58;4.65;;;2.40;;
78324;SDS011;67584;51.400;6.692;2023-04-12T01:58:32;6.57;;;3.63;;
78324;SDS011;67584;51.400;6.692;2023-04-12T02:00:58;8.80;;;3.08;;
78324;SDS011;67584;51.400;6.692;2023-04-12T02:03:27;8.95;;;3.88;;
78324;SDS011;67584;51.400;6.692;2023-04-12T02:05:56;8.50;;;4.00;;
78324;SDS011;67584;51.400;6.692;2023-04-12T02:08:23;14.10;;;5.07;;
78324;SDS011;67584;51.400;6.692;2023-04-12T02:10:50;7.78;;;3.20;;
78324;SDS011;67584;51.400;6.692;2023-04-12T02:13:16;8.20;;;3.20;;
78324;SDS011;67584;51.400;6.692;2023-04-12T02:15:42;5.43;;;3.55;;
78324;SDS011;67584;51.400;6.692;2023-04-12T02:18:08;6.18;;;2.83;;
78324;SDS011;67584;51.400;6.692;2023-04-12T02:20:36;7.50;;;3.65;;
78324;SDS011;67584;51.400;6.692;2023-04-12T02:23:02;5.20;;;2.20;;
78324;SDS011;67584;51.400;6.692;2023-04-12T02:25:28;7.68;;;2.95;;
78324;SDS011;67584;51.400;6.692;2023-04-12T02:27:54;7.88;;;4.85;;
78324;SDS011;67584;51.400;6.692;2023-04-12T02:30:19;8.45;;;3.78;;
78324;SDS011;67584;51.400;6.692;2023-04-12T02:32:49;8.50;;;4.00;;
78324;SDS011;67584;51.400;6.692;2023-04-12T02:35:22;6.40;;;3.65;;
78324;SDS011;67584;51.400;6.692;2023-04-12T02:37:53;17.17;;;5.75;;
78324;SDS011;67584;51.400;6.692;2023-04-12T02:40:21;10.80;;;3.67;;
78324;SDS011;67584;51.400;6.692;2023-04-12T02:42:47;8.25;;;4.13;;
78324;SDS011;67584;51.400;6.692;2023-04-12T02:45:13;10.90;;;4.03;;
78324;SDS011;67584;51.400;6.692;2023-04-12T02:47:40;7.88;;;3.47;;
78324;SDS011;67584;51.400;6.692;2023-04-12T02:50:08;6.72;;;3.10;;
78324;SDS011;67584;51.400;6.692;2023-04-12T02:52:44;6.68;;;3.22;;
78324;SDS011;67584;51.400;6.692;2023-04-12T02:55:11;6.35;;;3.05;;
78324;SDS011;67584;51.400;6.692;2023-04-12T02:57:36;7.47;;;2.75;;
78324;SDS011;67584;51.400;6.692;2023-04-12T03:00:04;8.05;;;2.90;;
78324;SDS011;67584;51.400;6.692;2023-04-12T03:02:41;4.80;;;2.30;;
78324;SDS011;67584;51.400;6.692;2023-04-12T03:05:13;5.10;;;2.50;;
78324;SDS011;67584;51.400;6.692;2023-04-12T03:07:41;4.85;;;2.40;;
78324;SDS011;67584;51.400;6.692;2023-04-12T03:10:08;3.80;;;2.15;;
78324;SDS011;67584;51.400;6.692;2023-04-12T03:12:40;3.75;;;2.38;;
78324;SDS011;67584;51.400;6.692;2023-04-12T03:15:16;4.13;;;2.50;;
78324;SDS011;67584;51.400;6.692;2023-04-12T03:17:46;7.93;;;2.75;;
78324;SDS011;67584;51.400;6.692;2023-04-12T03:20:13;6.47;;;2.67;;
78324;SDS011;67584;51.400;6.692;2023-04-12T03:22:46;9.77;;;2.60;;
78324;SDS011;67584;51.400;6.692;2023-04-12T03:25:12;3.35;;;2.33;;
78324;SDS011;67584;51.400;6.692;2023-04-12T03:27:43;6.18;;;2.50;;
78324;SDS011;67584;51.400;6.692;2023-04-12T03:30:28;4.00;;;2.45;;
78324;SDS011;67584;51.400;6.692;2023-04-12T03:32:56;6.10;;;2.80;;
78324;SDS011;67584;51.400;6.692;2023-04-12T03:35:22;7.03;;;2.30;;
78324;SDS011;67584;51.400;6.692;2023-04-12T03:37:49;4.55;;;2.33;;
78324;SDS011;67584;51.400;6.692;2023-04-12T03:40:14;4.75;;;2.10;;
78324;SDS011;67584;51.400;6.692;2023-04-12T03:42:47;9.68;;;3.85;;
78324;SDS011;67584;51.400;6.692;2023-04-12T03:45:13;6.35;;;3.03;;
78324;SDS011;67584;51.400;6.692;2023-04-12T03:47:43;9.23;;;3.10;;
78324;SDS011;67584;51.400;6.692;2023-04-12T03:50:10;6.07;;;2.83;;
78324;SDS011;67584;51.400;6.692;2023-04-12T03:52:37;5.60;;;2.67;;
78324;SDS011;67584;51.400;6.692;2023-04-12T03:55:05;3.95;;;2.80;;
78324;SDS011;67584;51.400;6.692;2023-04-12T03:57:31;4.57;;;2.00;;
78324;SDS011;67584;51.400;6.692;2023-04-12T03:59:57;4.15;;;1.92;;
78324;SDS011;67584;51.400;6.692;2023-04-12T04:02:27;3.47;;;2.10;;
78324;SDS011;67584;51.400;6.692;2023-04-12T04:04:55;5.22;;;2.60;;
78324;SDS011;67584;51.400;6.692;2023-04-12T04:07:25;7.18;;;2.97;;
78324;SDS011;67584;51.400;6.692;2023-04-12T04:09:54;5.63;;;2.80;;
78324;SDS011;67584;51.400;6.692;2023-04-12T04:12:20;7.60;;;2.85;;
78324;SDS011;67584;51.400;6.692;2023-04-12T04:14:51;4.57;;;2.22;;
78324;SDS011;67584;51.400;6.692;2023-04-12T04:17:28;9.20;;;3.83;;
78324;SDS011;67584;51.400;6.692;2023-04-12T04:19:54;8.23;;;2.92;;
78324;SDS011;67584;51.400;6.692;2023-04-12T04:22:20;8.77;;;2.95;;
78324;SDS011;67584;51.400;6.692;2023-04-12T04:24:49;9.05;;;3.30;;
78324;SDS011;67584;51.400;6.692;2023-04-12T04:27:16;9.95;;;3.58;;
78324;SDS011;67584;51.400;6.692;2023-04-12T04:29:42;9.13;;;2.80;;
78324;SDS011;67584;51.400;6.692;2023-04-12T04:32:13;5.95;;;2.85;;
78324;SDS011;67584;51.400;6.692;2023-04-12T04:34:40;8.23;;;3.83;;
78324;SDS011;67584;51.400;6.692;2023-04-12T04:37:14;10.20;;;3.05;;
78324;SDS011;67584;51.400;6.692;2023-04-12T04:39:43;5.45;;;3.53;;
78324;SDS011;67584;51.400;6.692;2023-04-12T04:42:09;6.25;;;3.10;;
78324;SDS011;67584;51.400;6.692;2023-04-12T04:44:39;6.70;;;3.03;;
78324;SDS011;67584;51.400;6.692;2023-04-12T04:47:07;5.35;;;2.30;;
78324;SDS011;67584;51.400;6.692;2023-04-12T04:49:34;6.82;;;2.70;;
78324;SDS011;67584;51.400;6.692;2023-04-12T04:52:06;5.70;;;3.15;;
78324;SDS011;67584;51.400;6.692;2023-04-12T04:54:33;4.03;;;2.50;;
78324;SDS011;67584;51.400;6.692;2023-04-12T04:57:00;6.07;;;3.22;;
78324;SDS011;67584;51.400;6.692;2023-04-12T04:59:26;9.00;;;3.05;;
78324;SDS011;67584;51.400;6.692;2023-04-12T05:01:57;5.57;;;3.40;;
78324;SDS011;67584;51.400;6.692;2023-04-12T05:04:23;5.97;;;3.15;;
78324;SDS011;67584;51.400;6.692;2023-04-12T05:06:49;8.80;;;3.88;;
78324;SDS011;67584;51.400;6.692;2023-04-12T05:09:18;5.40;;;2.88;;
78324;SDS011;67584;51.400;6.692;2023-04-12T05:11:52;7.15;;;4.22;;
78324;SDS011;67584;51.400;6.692;2023-04-12T05:14:18;8.13;;;3.90;;
78324;SDS011;67584;51.400;6.692;2023-04-12T05:16:44;6.05;;;3.15;;
78324;SDS011;67584;51.400;6.692;2023-04-12T05:19:09;10.32;;;3.80;;
78324;SDS011;67584;51.400;6.692;2023-04-12T05:21:35;9.13;;;3.80;;
78324;SDS011;67584;51.400;6.692;2023-04-12T05:24:01;6.13;;;3.38;;
78324;SDS011;67584;51.400;6.692;2023-04-12T05:26:28;11.70;;;4.13;;
78324;SDS011;67584;51.400;6.692;2023-04-12T05:28:54;7.50;;;3.95;;
78324;SDS011;67584;51.400;6.692;2023-04-12T05:31:20;6.88;;;3.22;;
78324;SDS011;67584;51.400;6.692;2023-04-12T05:33:46;9.80;;;3.65;;
78324;SDS011;67584;51.400;6.692;2023-04-12T05:36:13;4.70;;;3.00;;
78324;SDS011;67584;51.400;6.692;2023-04-12T05:38:40;12.00;;;4.53;;
78324;SDS011;67584;51.400;6.692;2023-04-12T05:41:10;6.90;;;3.58;;
78324;SDS011;67584;51.400;6.692;2023-04-12T05:43:36;12.43;;;5.15;;
78324;SDS011;67584;51.400;6.692;2023-04-12T05:46:04;7.57;;;3.40;;
78324;SDS011;67584;51.400;6.692;2023-04-12T05:48:32;6.70;;;3.78;;
78324;SDS011;67584;51.400;6.692;2023-04-12T05:51:00;7.13;;;4.05;;
78324;SDS011;67584;51.400;6.692;2023-04-12T05:53:26;7.43;;;3.80;;
78324;SDS011;67584;51.400;6.692;2023-04-12T05:55:54;8.32;;;3.70;;
78324;SDS011;67584;51.400;6.692;2023-04-12T05:58:21;7.20;;;4.13;;
78324;SDS011;67584;51.400;6.692;2023-04-12T06:00:49;12.30;;;4.38;;
78324;SDS011;67584;51.400;6.692;2023-04-12T06:03:15;7.97;;;5.50;;
78324;SDS011;67584;51.400;6.692;2023-04-12T06:05:41;7.25;;;4.22;;
78324;SDS011;67584;51.400;6.692;2023-04-12T06:08:07;8.75;;;3.95;;
78324;SDS011;67584;51.400;6.692;2023-04-12T06:10:33;7.68;;;3.97;;
78324;SDS011;67584;51.400;6.692;2023-04-12T06:12:58;7.35;;;3.90;;
78324;SDS011;67584;51.400;6.692;2023-04-12T06:15:24;4.88;;;3.78;;
78324;SDS011;67584;51.400;6.692;2023-04-12T06:17:53;7.43;;;3.95;;
78324;SDS011;67584;51.400;6.692;2023-04-12T06:20:18;7.15;;;3.63;;
78324;SDS011;67584;51.400;6.692;2023-04-12T06:22:44;9.68;;;5.22;;
78324;SDS011;67584;51.400;6.692;2023-04-12T06:25:13;8.75;;;5.30;;
78324;SDS011;67584;51.400;6.692;2023-04-12T06:27:41;9.90;;;5.70;;
78324;SDS011;67584;51.400;6.692;2023-04-12T06:30:07;10.90;;;5.63;;
78324;SDS011;67584;51.400;6.692;2023-04-12T06:32:34;10.48;;;4.30;;
78324;SDS011;67584;51.400;6.692;2023-04-12T06:35:02;7.88;;;4.38;;
78324;SDS011;67584;51.400;6.692;2023-04-12T06:37:32;7.00;;;4.57;;
78324;SDS011;67584;51.400;6.692;2023-04-12T06:39:58;7.75;;;5.13;;
78324;SDS011;67584;51.400;6.692;2023-04-12T06:42:23;10.23;;;5.75;;
78324;SDS011;67584;51.400;6.692;2023-04-12T06:44:49;11.38;;;6.10;;
78324;SDS011;67584;51.400;6.692;2023-04-12T06:47:15;8.63;;;5.38;;
78324;SDS011;67584;51.400;6.692;2023-04-12T06:49:40;11.65;;;6.32;;
78324;SDS011;67584;51.400;6.692;2023-04-12T06:52:06;11.90;;;6.43;;
78324;SDS011;67584;51.400;6.692;2023-04-12T06:54:34;12.57;;;7.15;;
78324;SDS011;67584;51.400;6.692;2023-04-12T06:57:01;8.68;;;5.70;;
78324;SDS011;67584;51.400;6.692;2023-04-12T06:59:27;13.93;;;7.47;;
78324;SDS011;67584;51.400;6.692;2023-04-12T07:01:53;8.85;;;5.85;;
78324;SDS011;67584;51.400;6.692;2023-04-12T07:04:18;11.90;;;7.40;;
78324;SDS011;67584;51.400;6.692;2023-04-12T07:06:44;11.27;;;7.72;;
78324;SDS011;67584;51.400;6.692;2023-04-12T07:09:10;11.13;;;6.72;;
78324;SDS011;67584;51.400;6.692;2023-04-12T07:11:36;11.23;;;6.90;;
78324;SDS011;67584;51.400;6.692;2023-04-12T07:14:01;16.73;;;8.05;;
78324;SDS011;67584;51.400;6.692;2023-04-12T07:16:28;15.43;;;9.63;;
78324;SDS011;67584;51.400;6.692;2023-04-12T07:18:55;19.50;;;9.00;;
78324;SDS011;67584;51.400;6.692;2023-04-12T07:21:21;13.63;;;7.25;;
78324;SDS011;67584;51.400;6.692;2023-04-12T07:23:47;10.88;;;6.88;;
78324;SDS011;67584;51.400;6.692;2023-04-12T07:26:15;11.75;;;6.57;;
78324;SDS011;67584;51.400;6.692;2023-04-12T07:28:41;11.75;;;6.00;;
78324;SDS011;67584;51.400;6.692;2023-04-12T07:31:07;11.73;;;5.97;;
78324;SDS011;67584;51.400;6.692;2023-04-12T07:33:33;11.55;;;6.43;;
78324;SDS011;67584;51.400;6.692;2023-04-12T07:36:00;11.05;;;6.45;;
78324;SDS011;67584;51.400;6.692;2023-04-12T07:38:26;9.30;;;5.03;;
78324;SDS011;67584;51.400;6.692;2023-04-12T07:40:53;13.07;;;5.13;;
78324;SDS011;67584;51.400;6.692;2023-04-12T07:43:19;10.65;;;6.13;;
78324;SDS011;67584;51.400;6.692;2023-04-12T07:45:46;13.68;;;6.35;;
78324;SDS011;67584;51.400;6.692;2023-04-12T07:48:11;13.68;;;6.93;;
78324;SDS011;67584;51.400;6.692;2023-04-12T07:50:37;9.63;;;5.45;;
78324;SDS011;67584;51.400;6.692;2023-04-12T07:53:16;6.90;;;4.50;;
78324;SDS011;67584;51.400;6.692;2023-04-12T07:55:50;9.10;;;4.75;;
78324;SDS011;67584;51.400;6.692;2023-04-12T07:58:16;11.15;;;6.15;;
78324;SDS011;67584;51.400;6.692;2023-04-12T08:00:43;11.00;;;6.32;;
78324;SDS011;67584;51.400;6.692;2023-04-12T08:03:14;7.75;;;4.93;;
78324;SDS011;67584;51.400;6.692;2023-04-12T08:05:41;10.13;;;4.40;;
78324;SDS011;67584;51.400;6.692;2023-04-12T08:08:07;5.70;;;4.13;;
78324;SDS011;67584;51.400;6.692;2023-04-12T08:10:36;6.47;;;3.95;;
78324;SDS011;67584;51.400;6.692;2023-04-12T08:13:03;4.35;;;3.53;;
78324;SDS011;67584;51.400;6.692;2023-04-12T08:15:29;5.45;;;4.32;;
78324;SDS011;67584;51.400;6.692;2023-04-12T08:17:55;6.40;;;4.38;;
78324;SDS011;67584;51.400;6.692;2023-04-12T08:20:24;5.18;;;4.13;;
78324;SDS011;67584;51.400;6.692;2023-04-12T08:22:50;8.70;;;4.45;;
78324;SDS011;67584;51.400;6.692;2023-04-12T08:25:16;4.00;;;3.60;;
78324;SDS011;67584;51.400;6.692;2023-04-12T08:27:42;5.10;;;4.13;;
78324;SDS011;67584;51.400;6.692;2023-04-12T08:30:09;4.55;;;3.55;;
78324;SDS011;67584;51.400;6.692;2023-04-12T08:32:38;7.70;;;3.70;;
78324;SDS011;67584;51.400;6.692;2023-04-12T08:35:05;5.40;;;3.75;;
78324;SDS011;67584;51.400;6.692;2023-04-12T08:37:32;6.63;;;5.13;;
78324;SDS011;67584;51.400;6.692;2023-04-12T08:39:58;6.00;;;3.70;;
78324;SDS011;67584;51.400;6.692;2023-04-12T08:42:30;4.88;;;3.88;;
78324;SDS011;67584;51.400;6.692;2023-04-12T08:44:58;6.63;;;4.22;;
78324;SDS011;67584;51.400;6.692;2023-04-12T08:47:36;5.72;;;3.55;;
78324;SDS011;67584;51.400;6.692;2023-04-12T08:50:04;3.70;;;3.15;;
78324;SDS011;67584;51.400;6.692;2023-04-12T08:52:33;6.55;;;4.18;;
78324;SDS011;67584;51.400;6.692;2023-04-12T08:55:07;4.50;;;3.78;;
78324;SDS011;67584;51.400;6.692;2023-04-12T08:57:34;5.05;;;4.55;;
78324;SDS011;67584;51.400;6.692;2023-04-12T09:00:01;4.85;;;4.25;;
78324;SDS011;67584;51.400;6.692;2023-04-12T09:02:28;5.65;;;4.65;;
78324;SDS011;67584;51.400;6.692;2023-04-12T09:04:54;7.32;;;3.72;;
78324;SDS011;67584;51.400;6.692;2023-04-12T09:07:20;5.60;;;4.32;;
78324;SDS011;67584;51.400;6.692;2023-04-12T09:09:54;6.35;;;4.57;;
78324;SDS011;67584;51.400;6.692;2023-04-12T09:12:21;4.15;;;3.30;;
78324;SDS011;67584;51.400;6.692;2023-04-12T09:14:53;3.60;;;2.83;;
78324;SDS011;67584;51.400;6.692;2023-04-12T09:17:37;4.70;;;3.55;;
78324;SDS011;67584;51.400;6.692;2023-04-12T09:22:36;6.75;;;4.30;;
78324;SDS011;67584;51.400;6.692;2023-04-12T09:25:09;10.45;;;5.38;;
78324;SDS011;67584;51.400;6.692;2023-04-12T09:27:45;5.38;;;4.25;;
78324;SDS011;67584;51.400;6.692;2023-04-12T09:30:18;7.13;;;4.93;;
78324;SDS011;67584;51.400;6.692;2023-04-12T09:32:44;5.95;;;5.10;;
78324;SDS011;67584;51.400;6.692;2023-04-12T09:35:10;6.25;;;4.72;;
78324;SDS011;67584;51.400;6.692;2023-04-12T09:37:36;5.45;;;4.70;;
78324;SDS011;67584;51.400;6.692;2023-04-12T09:40:05;5.95;;;4.05;;
78324;SDS011;67584;51.400;6.692;2023-04-12T09:42:33;4.85;;;4.20;;
78324;SDS011;67584;51.400;6.692;2023-04-12T09:44:59;6.10;;;3.88;;
78324;SDS011;67584;51.400;6.692;2023-04-12T09:47:42;6.32;;;5.35;;
78324;SDS011;67584;51.400;6.692;2023-04-12T09:50:24;8.75;;;6.85;;
78324;SDS011;67584;51.400;6.692;2023-04-12T09:52:54;7.88;;;6.13;;
78324;SDS011;67584;51.400;6.692;2023-04-12T09:55:21;4.90;;;3.45;;
78324;SDS011;67584;51.400;6.692;2023-04-12T09:57:49;6.15;;;3.92;;
78324;SDS011;67584;51.400;6.692;2023-04-12T10:00:16;6.15;;;4.53;;
78324;SDS011;67584;51.400;6.692;2023-04-12T10:02:43;3.08;;;2.42;;
78324;SDS011;67584;51.400;6.692;2023-04-12T10:05:12;3.33;;;2.50;;
78324;SDS011;67584;51.400;6.692;2023-04-12T10:07:39;2.63;;;2.38;;
78324;SDS011;67584;51.400;6.692;2023-04-12T10:10:09;3.20;;;2.10;;
78324;SDS011;67584;51.400;6.692;2023-04-12T10:12:40;3.00;;;2.30;;
78324;SDS011;67584;51.400;6.692;2023-04-12T10:15:07;3.72;;;2.10;;
78324;SDS011;67584;51.400;6.692;2023-04-12T10:20:14;2.80;;;2.20;;
78324;SDS011;67584;51.400;6.692;2023-04-12T10:22:46;2.95;;;1.92;;
78324;SDS011;67584;51.400;6.692;2023-04-12T10:25:17;2.15;;;1.60;;
78324;SDS011;67584;51.400;6.692;2023-04-12T10:27:45;2.33;;;1.50;;
78324;SDS011;67584;51.400;6.692;2023-04-12T10:30:17;2.85;;;1.20;;
78324;SDS011;67584;51.400;6.692;2023-04-12T10:32:43;1.30;;;1.00;;
78324;SDS011;67584;51.400;6.692;2023-04-12T10:35:09;2.13;;;1.38;;
78324;SDS011;67584;51.400;6.692;2023-04-12T10:40:29;4.40;;;1.30;;
78324;SDS011;67584;51.400;6.692;2023-04-12T10:45:46;4.40;;;2.30;;
78324;SDS011;67584;51.400;6.692;2023-04-12T10:51:14;6.10;;;1.80;;
78324;SDS011;67584;51.400;6.692;2023-04-12T10:53:50;2.80;;;1.40;;
78324;SDS011;67584;51.400;6.692;2023-04-12T10:58:57;4.70;;;1.52;;
78324;SDS011;67584;51.400;6.692;2023-04-12T11:01:25;6.18;;;1.70;;
78324;SDS011;67584;51.400;6.692;2023-04-12T11:04:11;4.72;;;2.10;;
78324;SDS011;67584;51.400;6.692;2023-04-12T11:09:38;4.53;;;2.63;;
78324;SDS011;67584;51.400;6.692;2023-04-12T11:19:33;4.30;;;1.60;;
78324;SDS011;67584;51.400;6.692;2023-04-12T11:22:02;5.25;;;1.60;;
78324;SDS011;67584;51.400;6.692;2023-04-12T11:24:28;9.70;;;2.47;;
78324;SDS011;67584;51.400;6.692;2023-04-12T11:26:55;4.30;;;1.40;;
78324;SDS011;67584;51.400;6.692;2023-04-12T11:29:24;3.50;;;1.75;;
78324;SDS011;67584;51.400;6.692;2023-04-12T11:31:53;7.75;;;2.03;;
78324;SDS011;67584;51.400;6.692;2023-04-12T11:34:20;5.07;;;1.95;;
78324;SDS011;67584;51.400;6.692;2023-04-12T11:36:53;6.03;;;1.48;;
78324;SDS011;67584;51.400;6.692;2023-04-12T11:39:19;8.20;;;1.83;;
78324;SDS011;67584;51.400;6.692;2023-04-12T11:41:46;6.95;;;1.75;;
78324;SDS011;67584;51.400;6.692;2023-04-12T11:44:13;6.57;;;2.20;;
78324;SDS011;67584;51.400;6.692;2023-04-12T11:46:43;4.82;;;1.50;;
78324;SDS011;67584;51.400;6.692;2023-04-12T11:49:13;2.33;;;1.50;;
78324;SDS011;67584;51.400;6.692;2023-04-12T11:51:40;3.60;;;1.60;;
78324;SDS011;67584;51.400;6.692;2023-04-12T11:54:06;5.78;;;1.90;;
78324;SDS011;67584;51.400;6.692;2023-04-12T11:56:31;5.13;;;1.90;;
78324;SDS011;67584;51.400;6.692;2023-04-12T11:58:57;4.50;;;2.05;;
78324;SDS011;67584;51.400;6.692;2023-04-12T12:01:23;7.57;;;1.80;;
78324;SDS011;67584;51.400;6.692;2023-04-12T12:03:49;4.63;;;2.50;;
78324;SDS011;67584;51.400;6.692;2023-04-12T12:06:15;8.10;;;1.85;;
78324;SDS011;67584;51.400;6.692;2023-04-12T12:08:42;5.15;;;2.20;;
78324;SDS011;67584;51.400;6.692;2023-04-12T12:11:08;3.42;;;1.40;;
78324;SDS011;67584;51.400;6.692;2023-04-12T12:13:46;2.67;;;1.83;;
78324;SDS011;67584;51.400;6.692;2023-04-12T12:16:13;5.85;;;2.28;;
78324;SDS011;67584;51.400;6.692;2023-04-12T12:18:41;7.05;;;2.38;;
78324;SDS011;67584;51.400;6.692;2023-04-12T12:21:08;6.82;;;1.80;;
78324;SDS011;67584;51.400;6.692;2023-04-12T12:23:35;3.70;;;2.40;;
78324;SDS011;67584;51.400;6.692;2023-04-12T12:26:02;6.47;;;1.85;;
78324;SDS011;67584;51.400;6.692;2023-04-12T12:28:28;5.60;;;2.25;;
78324;SDS011;67584;51.400;6.692;2023-04-12T12:30:54;5.38;;;3.25;;
78324;SDS011;67584;51.400;6.692;2023-04-12T12:33:21;4.93;;;1.80;;
78324;SDS011;67584;51.400;6.692;2023-04-12T12:35:57;4.78;;;2.25;;
78324;SDS011;67584;51.400;6.692;2023-04-12T12:38:22;5.78;;;2.80;;
78324;SDS011;67584;51.400;6.692;2023-04-12T12:40:48;3.45;;;2.22;;
78324;SDS011;67584;51.400;6.692;2023-04-12T12:43:20;5.68;;;2.58;;
78324;SDS011;67584;51.400;6.692;2023-04-12T12:45:46;5.70;;;2.30;;
78324;SDS011;67584;51.400;6.692;2023-04-12T12:48:12;6.65;;;2.17;;
78324;SDS011;67584;51.400;6.692;2023-04-12T12:50:37;4.43;;;2.10;;
78324;SDS011;67584;51.400;6.692;2023-04-12T12:53:03;6.13;;;3.22;;
78324;SDS011;67584;51.400;6.692;2023-04-12T12:55:33;5.07;;;2.10;;
78324;SDS011;67584;51.400;6.692;2023-04-12T12:57:59;6.68;;;2.38;;
78324;SDS011;67584;51.400;6.692;2023-04-12T13:00:26;4.90;;;1.98;;
78324;SDS011;67584;51.400;6.692;2023-04-12T13:02:53;4.93;;;2.70;;
78324;SDS011;67584;51.400;6.692;2023-04-12T13:05:19;5.50;;;2.40;;
78324;SDS011;67584;51.400;6.692;2023-04-12T13:07:46;6.25;;;2.30;;
78324;SDS011;67584;51.400;6.692;2023-04-12T13:10:12;4.80;;;2.33;;
78324;SDS011;67584;51.400;6.692;2023-04-12T13:12:38;6.68;;;2.95;;
78324;SDS011;67584;51.400;6.692;2023-04-12T13:15:04;5.35;;;2.53;;
78324;SDS011;67584;51.400;6.692;2023-04-12T13:17:30;11.35;;;4.15;;
78324;SDS011;67584;51.400;6.692;2023-04-12T13:19:56;4.43;;;2.28;;
78324;SDS011;67584;51.400;6.692;2023-04-12T13:22:22;8.52;;;3.78;;
78324;SDS011;67584;51.400;6.692;2023-04-12T13:24:49;6.75;;;3.05;;
78324;SDS011;67584;51.400;6.692;2023-04-12T13:27:15;9.43;;;2.92;;
78324;SDS011;67584;51.400;6.692;2023-04-12T13:29:41;10.82;;;2.83;;
78324;SDS011;67584;51.400;6.692;2023-04-12T13:32:07;7.45;;;3.00;;
78324;SDS011;67584;51.400;6.692;2023-04-12T13:34:33;6.63;;;2.67;;
78324;SDS011;67584;51.400;6.692;2023-04-12T13:36:59;9.70;;;3.22;;
78324;SDS011;67584;51.400;6.692;2023-04-12T13:39:25;7.65;;;2.78;;
78324;SDS011;67584;51.400;6.692;2023-04-12T13:41:51;8.85;;;3.15;;
78324;SDS011;67584;51.400;6.692;2023-04-12T13:44:17;7.15;;;3.60;;
78324;SDS011;67584;51.400;6.692;2023-04-12T13:46:43;6.10;;;3.78;;
78324;SDS011;67584;51.400;6.692;2023-04-12T13:49:09;8.60;;;3.65;;
78324;SDS011;67584;51.400;6.692;2023-04-12T13:51:35;9.18;;;3.22;;
78324;SDS011;67584;51.400;6.692;2023-04-12T13:54:00;7.78;;;3.15;;
78324;SDS011;67584;51.400;6.692;2023-04-12T13:56:26;6.18;;;3.22;;
78324;SDS011;67584;51.400;6.692;2023-04-12T13:58:55;6.85;;;3.00;;
78324;SDS011;67584;51.400;6.692;2023-04-12T14:01:21;9.70;;;3.20;;
78324;SDS011;67584;51.400;6.692;2023-04-12T14:03:49;7.60;;;3.28;;
78324;SDS011;67584;51.400;6.692;2023-04-12T14:06:15;10.48;;;2.75;;
78324;SDS011;67584;51.400;6.692;2023-04-12T14:08:41;10.38;;;3.67;;
78324;SDS011;67584;51.400;6.692;2023-04-12T14:11:06;6.18;;;3.45;;
78324;SDS011;67584;51.400;6.692;2023-04-12T14:13:32;5.68;;;3.33;;
78324;SDS011;67584;51.400;6.692;2023-04-12T14:15:57;7.22;;;2.97;;
78324;SDS011;67584;51.400;6.692;2023-04-12T14:18:23;9.73;;;3.35;;
78324;SDS011;67584;51.400;6.692;2023-04-12T14:20:49;9.52;;;3.78;;
78324;SDS011;67584;51.400;6.692;2023-04-12T14:23:19;10.85;;;3.47;;
78324;SDS011;67584;51.400;6.692;2023-04-12T14:25:51;7.18;;;3.78;;
78324;SDS011;67584;51.400;6.692;2023-04-12T14:28:17;10.43;;;3.28;;
78324;SDS011;67584;51.400;6.692;2023-04-12T14:30:52;14.25;;;4.78;;
78324;SDS011;67584;51.400;6.692;2023-04-12T14:33:18;9.45;;;3.72;;
78324;SDS011;67584;51.400;6.692;2023-04-12T14:35:44;9.10;;;3.17;;
78324;SDS011;67584;51.400;6.692;2023-04-12T14:38:10;8.98;;;3.70;;
78324;SDS011;67584;51.400;6.692;2023-04-12T14:40:36;7.05;;;2.40;;
78324;SDS011;67584;51.400;6.692;2023-04-12T14:43:02;6.47;;;2.95;;
78324;SDS011;67584;51.400;6.692;2023-04-12T14:45:27;5.30;;;2.55;;
78324;SDS011;67584;51.400;6.692;2023-04-12T14:47:53;5.13;;;2.10;;
78324;SDS011;67584;51.400;6.692;2023-04-12T14:50:19;5.03;;;2.15;;
78324;SDS011;67584;51.400;6.692;2023-04-12T14:52:45;3.33;;;1.73;;
78324;SDS011;67584;51.400;6.692;2023-04-12T14:55:11;7.30;;;2.60;;
78324;SDS011;67584;51.400;6.692;2023-04-12T14:57:37;7.82;;;3.55;;
78324;SDS011;67584;51.400;6.692;2023-04-12T15:00:04;6.93;;;3.38;;
78324;SDS011;67584;51.400;6.692;2023-04-12T15:02:37;5.07;;;1.70;;
78324;SDS011;67584;51.400;6.692;2023-04-12T15:05:03;1.58;;;1.35;;
78324;SDS011;67584;51.400;6.692;2023-04-12T15:07:32;3.17;;;1.23;;
78324;SDS011;67584;51.400;6.692;2023-04-12T15:10:00;1.70;;;1.20;;
78324;SDS011;67584;51.400;6.692;2023-04-12T15:12:26;1.50;;;0.77;;
78324;SDS011;67584;51.400;6.692;2023-04-12T15:14:52;2.10;;;0.73;;
78324;SDS011;67584;51.400;6.692;2023-04-12T15:17:18;4.97;;;1.20;;
78324;SDS011;67584;51.400;6.692;2023-04-12T15:19:44;3.03;;;1.30;;
78324;SDS011;67584;51.400;6.692;2023-04-12T15:22:10;1.88;;;1.25;;
78324;SDS011;67584;51.400;6.692;2023-04-12T15:24:36;3.78;;;1.17;;
78324;SDS011;67584;51.400;6.692;2023-04-12T15:27:02;2.38;;;0.88;;
78324;SDS011;67584;51.400;6.692;2023-04-12T15:29:28;2.95;;;1.30;;
78324;SDS011;67584;51.400;6.692;2023-04-12T15:31:55;1.80;;;1.00;;